Time;durP1;ratioP1;P1;durP2;ratioP2;P2;SDS_P1;SDS_P2;PMS_P1;PMS_P2;Temp;Humidity;BMP_temperature;BMP_pressure;BME280_temperature;BME280_humidity;BME280_pressure;Samples;Min_cycle;Max_cycle;Signal;HPM_P1;HPM_P2
2023/08/22 00:00:08;;;;;;;6.68;3.72;;;19.00;99.90;;;;;;5019630;28;20029;-66
2023/08/22 00:02:33;;;;;;;9.27;4.32;;;19.00;99.90;;;;;;5019919;28;20049;-66
2023/08/22 00:04:59;;;;;;;7.47;4.10;;;19.00;99.90;;;;;;5014979;28;20100;-67
2023/08/22 00:07:24;;;;;;;9.02;4.40;;;18.90;99.90;;;;;;5017726;28;20046;-66
2023/08/22 00:09:50;;;;;;;9.68;4.95;;;18.80;99.90;;;;;;5013611;28;20032;-64
2023/08/22 00:12:15;;;;;;;9.35;4.38;;;18.70;99.90;;;;;;5016779;28;20108;-66
2023/08/22 00:14:41;;;;;;;6.60;4.05;;;18.70;99.90;;;;;;5017939;28;20029;-65
2023/08/22 00:17:10;;;;;;;11.02;4.13;;;18.70;99.90;;;;;;5013068;28;20026;-63
2023/08/22 00:19:39;;;;;;;8.18;4.70;;;18.60;99.90;;;;;;5016544;28;20026;-66
2023/08/22 00:22:05;;;;;;;7.65;4.47;;;18.60;99.90;;;;;;5014668;28;20034;-66
2023/08/22 00:24:32;;;;;;;11.68;4.53;;;18.50;99.90;;;;;;5016742;28;20081;-66
2023/08/22 00:26:58;;;;;;;10.57;5.20;;;18.40;99.90;;;;;;5019097;28;20037;-67
2023/08/22 00:29:24;;;;;;;11.57;4.55;;;18.40;99.90;;;;;;5017146;28;20072;-66
2023/08/22 00:31:50;;;;;;;9.40;4.88;;;18.30;99.90;;;;;;5012129;28;20114;-66
2023/08/22 00:34:16;;;;;;;8.77;4.65;;;18.30;99.90;;;;;;5000907;28;20104;-66
2023/08/22 00:36:41;;;;;;;9.65;4.22;;;18.30;99.90;;;;;;5014877;28;21478;-66
2023/08/22 00:39:07;;;;;;;9.15;4.57;;;18.20;99.90;;;;;;5016509;28;20056;-64
2023/08/22 00:41:33;;;;;;;10.70;5.10;;;18.20;99.90;;;;;;5015708;28;20525;-68
2023/08/22 00:43:59;;;;;;;10.38;4.50;;;18.30;99.90;;;;;;5015543;28;20039;-68
2023/08/22 00:46:27;;;;;;;9.00;4.93;;;18.30;99.90;;;;;;5015017;28;21199;-67
2023/08/22 00:48:53;;;;;;;13.93;4.53;;;18.40;99.90;;;;;;4997488;28;20045;-65
2023/08/22 00:51:19;;;;;;;11.55;4.55;;;18.50;99.90;;;;;;5023166;28;20048;-65
2023/08/22 00:53:45;;;;;;;9.00;4.38;;;18.50;99.90;;;;;;5022822;28;20033;-66
2023/08/22 00:56:11;;;;;;;8.80;3.20;;;18.60;99.90;;;;;;5025456;28;20506;-66
2023/08/22 00:58:38;;;;;;;9.05;3.95;;;18.60;99.90;;;;;;5026640;28;20025;-65
2023/08/22 01:01:03;;;;;;;8.73;3.63;;;18.70;99.90;;;;;;5026086;28;20157;-66
2023/08/22 01:03:29;;;;;;;7.22;4.32;;;18.70;99.90;;;;;;5024619;28;20122;-67
2023/08/22 01:06:00;;;;;;;5.40;3.88;;;18.70;99.90;;;;;;5028371;28;20029;-67
2023/08/22 01:08:31;;;;;;;10.60;3.22;;;18.70;99.90;;;;;;5025184;28;20041;-65
2023/08/22 01:11:03;;;;;;;8.43;4.03;;;18.70;99.90;;;;;;5026626;28;20040;-67
2023/08/22 01:13:37;;;;;;;5.05;3.50;;;18.70;99.90;;;;;;5042292;28;20028;-67
2023/08/22 01:16:03;;;;;;;7.47;3.92;;;18.60;99.90;;;;;;5025036;28;20672;-66
2023/08/22 01:18:30;;;;;;;6.25;3.58;;;18.60;99.90;;;;;;5024833;28;20441;-66
2023/08/22 01:21:05;;;;;;;6.43;3.50;;;18.60;99.90;;;;;;5025267;28;20040;-66
2023/08/22 01:23:30;;;;;;;10.73;4.05;;;18.60;99.90;;;;;;5022226;28;20025;-67
2023/08/22 01:25:57;;;;;;;7.28;3.30;;;18.70;99.90;;;;;;5024475;28;20041;-66
2023/08/22 01:28:37;;;;;;;5.07;3.13;;;18.70;99.90;;;;;;5024457;28;20037;-67
2023/08/22 01:31:06;;;;;;;9.27;3.67;;;18.70;99.90;;;;;;5024443;28;20116;-66
2023/08/22 01:33:37;;;;;;;12.10;4.00;;;18.70;99.90;;;;;;5024315;28;20025;-66
2023/08/22 01:36:08;;;;;;;4.68;2.75;;;18.70;99.90;;;;;;5022011;28;20569;-68
2023/08/22 01:38:34;;;;;;;10.45;3.55;;;18.70;99.90;;;;;;5023527;28;20032;-66
2023/08/22 01:41:02;;;;;;;11.45;3.75;;;18.60;99.90;;;;;;5024691;28;20063;-67
2023/08/22 01:43:27;;;;;;;9.60;3.28;;;18.60;99.90;;;;;;5025299;28;20064;-68
2023/08/22 01:45:53;;;;;;;9.68;3.50;;;18.60;99.90;;;;;;5025624;28;20041;-67
2023/08/22 01:48:19;;;;;;;6.53;3.63;;;18.50;99.90;;;;;;4997062;28;20121;-64
2023/08/22 01:50:44;;;;;;;8.38;4.20;;;18.50;99.90;;;;;;5022098;28;20120;-66
2023/08/22 01:53:10;;;;;;;9.30;4.10;;;18.50;99.90;;;;;;5023331;28;20037;-65
2023/08/22 01:55:35;;;;;;;11.00;4.20;;;18.40;99.90;;;;;;5024566;28;20438;-67
2023/08/22 01:58:03;;;;;;;10.18;5.10;;;18.40;99.90;;;;;;5024827;28;20049;-66
2023/08/22 02:00:29;;;;;;;9.95;4.72;;;18.30;99.90;;;;;;5023659;28;20033;-67
2023/08/22 02:02:54;;;;;;;10.25;5.05;;;18.20;99.90;;;;;;5024910;28;20608;-68
2023/08/22 02:05:20;;;;;;;7.63;4.43;;;18.10;99.90;;;;;;5023913;28;20041;-66
2023/08/22 02:07:46;;;;;;;13.32;5.00;;;18.00;99.90;;;;;;5026008;28;20042;-66
2023/08/22 02:10:12;;;;;;;7.60;4.72;;;17.90;99.90;;;;;;5025848;28;20024;-66
2023/08/22 02:12:39;;;;;;;9.40;4.88;;;17.90;99.90;;;;;;5022636;28;20104;-66
2023/08/22 02:15:06;;;;;;;9.75;4.40;;;17.80;99.90;;;;;;5023260;28;20029;-66
2023/08/22 02:17:31;;;;;;;11.23;5.10;;;17.80;99.90;;;;;;5022708;28;20570;-66
2023/08/22 02:19:57;;;;;;;9.50;4.97;;;17.80;99.90;;;;;;5026154;28;20092;-67
2023/08/22 02:22:22;;;;;;;13.27;4.47;;;17.80;99.90;;;;;;5023572;28;20549;-64
2023/08/22 02:24:48;;;;;;;7.18;4.50;;;17.80;99.90;;;;;;5022493;28;20029;-66
2023/08/22 02:27:14;;;;;;;10.20;4.20;;;17.80;99.90;;;;;;5024861;28;20113;-65
2023/08/22 02:29:39;;;;;;;8.27;4.10;;;17.80;99.90;;;;;;5021094;28;20029;-66
2023/08/22 02:32:05;;;;;;;8.95;5.05;;;17.80;99.90;;;;;;5024226;28;20033;-66
2023/08/22 02:34:30;;;;;;;10.18;3.67;;;17.70;99.90;;;;;;5014102;28;20040;-65
2023/08/22 02:36:56;;;;;;;8.43;4.18;;;17.70;99.90;;;;;;5021752;28;20013;-66
2023/08/22 02:39:22;;;;;;;13.35;4.40;;;17.60;99.90;;;;;;5024371;28;20025;-66
2023/08/22 02:41:47;;;;;;;10.77;4.63;;;17.50;99.90;;;;;;5022388;28;20745;-66
2023/08/22 02:44:13;;;;;;;9.02;4.65;;;17.60;99.90;;;;;;5022292;28;20037;-64
2023/08/22 02:46:39;;;;;;;9.48;3.67;;;17.50;99.90;;;;;;5017762;28;20094;-67
2023/08/22 02:49:04;;;;;;;7.72;4.47;;;17.50;99.90;;;;;;4997367;28;20053;-66
2023/08/22 02:51:31;;;;;;;8.75;4.53;;;17.50;99.90;;;;;;5022384;28;20106;-66
2023/08/22 02:53:56;;;;;;;9.82;4.25;;;17.50;99.90;;;;;;5022995;28;20064;-66
2023/08/22 02:56:22;;;;;;;7.68;4.40;;;17.60;99.90;;;;;;5024014;28;20095;-65
2023/08/22 02:58:48;;;;;;;8.35;3.83;;;17.60;99.90;;;;;;5037736;28;20038;-65
2023/08/22 03:01:13;;;;;;;9.05;3.60;;;17.60;99.90;;;;;;5022319;28;20096;-66
2023/08/22 03:03:39;;;;;;;11.48;3.22;;;17.60;99.90;;;;;;5023457;28;20075;-66
2023/08/22 03:06:05;;;;;;;7.03;3.15;;;17.50;99.90;;;;;;5021597;28;20045;-66
2023/08/22 03:08:30;;;;;;;9.73;3.65;;;17.40;99.90;;;;;;5020125;28;20045;-66
2023/08/22 03:11:02;;;;;;;7.68;4.03;;;17.40;99.90;;;;;;5022912;28;20030;-66
2023/08/22 03:13:28;;;;;;;8.25;4.00;;;17.40;99.90;;;;;;5024018;28;20017;-67
2023/08/22 03:15:55;;;;;;;11.48;4.07;;;17.40;99.90;;;;;;5018630;28;20037;-66
2023/08/22 03:18:21;;;;;;;9.68;4.25;;;17.30;99.90;;;;;;5024617;28;20025;-63
2023/08/22 03:20:46;;;;;;;8.18;4.00;;;17.20;99.90;;;;;;5024769;28;20033;-66
2023/08/22 03:23:13;;;;;;;8.13;3.92;;;17.20;99.90;;;;;;5023709;28;20068;-67
2023/08/22 03:25:39;;;;;;;7.38;4.40;;;17.20;99.90;;;;;;5021731;28;20351;-66
2023/08/22 03:28:05;;;;;;;13.20;3.70;;;17.10;99.90;;;;;;5023720;28;21133;-65
2023/08/22 03:30:30;;;;;;;8.38;4.45;;;17.10;99.90;;;;;;5019786;28;20048;-67
2023/08/22 03:32:56;;;;;;;9.55;4.07;;;17.00;99.90;;;;;;5022298;28;20491;-66
2023/08/22 03:35:21;;;;;;;9.30;3.90;;;17.00;99.90;;;;;;5023916;28;20025;-66
2023/08/22 03:37:47;;;;;;;8.07;3.60;;;17.00;99.90;;;;;;5023224;28;20029;-66
2023/08/22 03:40:13;;;;;;;9.85;4.60;;;16.90;99.90;;;;;;5024629;28;20405;-66
2023/08/22 03:42:38;;;;;;;11.50;5.13;;;16.90;99.90;;;;;;5023773;28;20037;-65
2023/08/22 03:45:04;;;;;;;6.15;3.92;;;16.80;99.90;;;;;;5022684;28;20106;-66
2023/08/22 03:47:30;;;;;;;7.18;4.65;;;16.70;99.90;;;;;;5023973;28;20048;-68
2023/08/22 03:49:55;;;;;;;13.93;5.25;;;16.70;99.90;;;;;;4997926;28;20038;-66
2023/08/22 03:52:21;;;;;;;7.93;5.60;;;16.70;99.90;;;;;;5023641;28;20035;-65
2023/08/22 03:54:47;;;;;;;11.70;4.93;;;16.70;99.90;;;;;;5020249;28;20059;-67
2023/08/22 03:57:12;;;;;;;11.18;7.28;;;16.70;99.90;;;;;;5023740;28;20395;-64
2023/08/22 03:59:38;;;;;;;14.35;5.90;;;16.60;99.90;;;;;;5026722;28;20037;-66
2023/08/22 04:02:03;;;;;;;10.38;5.63;;;16.60;99.90;;;;;;5027680;28;20033;-65
2023/08/22 04:04:29;;;;;;;9.60;5.30;;;16.60;99.90;;;;;;5028457;28;20039;-66
2023/08/22 04:06:55;;;;;;;11.13;6.05;;;16.50;99.90;;;;;;5027199;28;20037;-67
2023/08/22 04:09:20;;;;;;;9.23;5.40;;;16.50;99.90;;;;;;5026437;28;20414;-66
2023/08/22 04:11:46;;;;;;;12.27;5.68;;;16.50;99.90;;;;;;5026460;28;20044;-66
2023/08/22 04:14:11;;;;;;;13.52;6.03;;;16.40;99.90;;;;;;5025518;28;20040;-65
2023/08/22 04:16:37;;;;;;;13.98;6.18;;;16.40;99.90;;;;;;5027044;28;20080;-66
2023/08/22 04:19:02;;;;;;;14.65;6.82;;;16.50;99.90;;;;;;5024686;28;20037;-67
2023/08/22 04:21:28;;;;;;;9.63;5.90;;;16.50;99.90;;;;;;5024587;28;20037;-65
2023/08/22 04:23:54;;;;;;;16.30;6.43;;;16.50;99.90;;;;;;5026897;28;20139;-66
2023/08/22 04:26:20;;;;;;;11.48;6.97;;;16.50;99.90;;;;;;5025767;28;20029;-64
2023/08/22 04:28:46;;;;;;;14.07;6.70;;;16.50;99.90;;;;;;5026245;28;20044;-66
2023/08/22 04:31:11;;;;;;;15.02;6.28;;;16.60;99.90;;;;;;5027470;28;20030;-65
2023/08/22 04:33:37;;;;;;;12.30;6.18;;;16.50;99.90;;;;;;5027312;28;20029;-66
2023/08/22 04:36:03;;;;;;;14.90;6.82;;;16.50;99.90;;;;;;5026271;28;20497;-66
2023/08/22 04:38:29;;;;;;;10.68;6.63;;;16.50;99.90;;;;;;5023246;28;21423;-66
2023/08/22 04:40:55;;;;;;;22.95;6.70;;;16.50;99.90;;;;;;5022139;28;20116;-67
2023/08/22 04:43:20;;;;;;;12.10;6.53;;;16.60;99.90;;;;;;5024030;28;20099;-66
2023/08/22 04:45:46;;;;;;;15.23;6.10;;;16.60;99.90;;;;;;5021821;28;20056;-66
2023/08/22 04:48:11;;;;;;;9.18;5.78;;;16.60;99.90;;;;;;5022337;28;20033;-66
2023/08/22 04:50:37;;;;;;;14.98;5.60;;;16.60;99.90;;;;;;4997265;28;20254;-66
2023/08/22 04:53:03;;;;;;;17.27;6.80;;;16.60;99.90;;;;;;5023535;28;20029;-65
2023/08/22 04:55:28;;;;;;;9.63;5.28;;;16.70;99.90;;;;;;5025210;28;20060;-64
2023/08/22 04:57:54;;;;;;;9.30;5.25;;;16.70;99.90;;;;;;5024098;28;20029;-66
2023/08/22 05:00:19;;;;;;;8.35;5.15;;;16.70;99.90;;;;;;5023434;28;20160;-62
2023/08/22 05:02:45;;;;;;;14.40;5.20;;;16.80;99.90;;;;;;5026324;28;20029;-66
2023/08/22 05:05:10;;;;;;;13.20;5.13;;;16.80;99.90;;;;;;5025945;28;20029;-67
2023/08/22 05:07:37;;;;;;;13.45;6.80;;;16.90;99.90;;;;;;5024799;28;20042;-67
2023/08/22 05:10:03;;;;;;;14.05;5.13;;;16.90;99.90;;;;;;5025306;28;20029;-67
2023/08/22 05:12:29;;;;;;;10.32;4.85;;;17.00;99.90;;;;;;5024737;28;20046;-66
2023/08/22 05:14:56;;;;;;;10.38;4.45;;;17.10;99.90;;;;;;5019319;28;20045;-66
2023/08/22 05:17:22;;;;;;;7.00;4.60;;;17.20;99.90;;;;;;5021822;28;20055;-67
2023/08/22 05:19:48;;;;;;;10.60;4.95;;;17.40;99.90;;;;;;5023735;28;20056;-65
2023/08/22 05:22:13;;;;;;;5.35;4.35;;;17.50;99.90;;;;;;5023786;28;20029;-67
2023/08/22 05:24:39;;;;;;;7.68;4.22;;;17.70;99.90;;;;;;5023216;28;20589;-66
2023/08/22 05:27:04;;;;;;;11.73;4.70;;;17.90;99.90;;;;;;5023424;28;20038;-65
2023/08/22 05:29:30;;;;;;;6.10;3.88;;;18.10;99.90;;;;;;5022983;28;20037;-65
2023/08/22 05:31:56;;;;;;;6.95;3.97;;;18.30;99.90;;;;;;5021795;28;20041;-67
2023/08/22 05:34:21;;;;;;;7.90;4.15;;;18.50;99.90;;;;;;5025074;28;20053;-63
2023/08/22 05:36:47;;;;;;;9.93;3.80;;;18.70;99.90;;;;;;5022713;28;20454;-66
2023/08/22 05:39:12;;;;;;;7.05;3.53;;;19.10;99.90;;;;;;5022929;28;20072;-70
2023/08/22 05:41:38;;;;;;;9.40;3.80;;;19.50;99.90;;;;;;5019394;28;20061;-66
2023/08/22 05:44:04;;;;;;;9.55;3.63;;;19.70;99.90;;;;;;5023903;28;20060;-66
2023/08/22 05:46:29;;;;;;;5.35;3.40;;;19.90;99.90;;;;;;5021658;28;20037;-66
2023/08/22 05:48:55;;;;;;;8.27;3.20;;;20.20;99.90;;;;;;4995670;28;20049;-66
2023/08/22 05:51:21;;;;;;;11.68;4.05;;;20.30;99.90;;;;;;5022624;28;20037;-67
2023/08/22 05:53:47;;;;;;;9.30;2.90;;;20.50;99.90;;;;;;5024834;28;20372;-66
2023/08/22 05:56:12;;;;;;;2.80;2.00;;;20.80;99.90;;;;;;5023194;28;20072;-66
2023/08/22 05:58:38;;;;;;;7.38;2.90;;;21.10;99.90;;;;;;5020437;28;20030;-65
2023/08/22 06:01:10;;;;;;;6.63;2.75;;;21.20;99.90;;;;;;5023967;28;20021;-66
2023/08/22 06:03:37;;;;;;;6.82;3.55;;;21.30;99.90;;;;;;5024366;28;20021;-66
2023/08/22 06:06:03;;;;;;;8.60;2.97;;;21.70;99.90;;;;;;5022105;28;20083;-67
2023/08/22 06:08:28;;;;;;;8.60;2.65;;;22.20;99.90;;;;;;5023877;28;20041;-67
2023/08/22 06:10:54;;;;;;;4.13;2.40;;;23.10;99.90;;;;;;5026001;28;20495;-66
2023/08/22 06:13:20;;;;;;;6.15;2.55;;;24.20;99.90;;;;;;5020943;28;20037;-67
2023/08/22 06:15:45;;;;;;;5.75;2.40;;;25.80;99.90;;;;;;5021865;28;20026;-67
2023/08/22 06:18:11;;;;;;;8.38;2.70;;;26.80;99.90;;;;;;5021734;28;20026;-66
2023/08/22 06:20:39;;;;;;;6.25;2.38;;;26.30;99.90;;;;;;5022436;28;20056;-65
2023/08/22 06:23:06;;;;;;;7.28;2.90;;;25.70;99.90;;;;;;5022679;28;20494;-66
2023/08/22 06:25:34;;;;;;;4.20;2.97;;;25.10;99.90;;;;;;5023820;28;20025;-66
2023/08/22 06:28:00;;;;;;;6.15;2.22;;;25.00;99.90;;;;;;5021604;28;20096;-65
2023/08/22 06:30:29;;;;;;;4.15;2.30;;;25.80;99.90;;;;;;5021006;28;20480;-68
2023/08/22 06:32:54;;;;;;;4.82;2.50;;;27.00;99.90;;;;;;5021363;28;20742;-67
2023/08/22 06:35:20;;;;;;;3.70;2.38;;;28.00;98.50;;;;;;5023445;28;20036;-66
2023/08/22 06:37:46;;;;;;;7.82;2.30;;;28.20;97.90;;;;;;5018471;28;20026;-66
2023/08/22 06:40:11;;;;;;;4.97;2.80;;;27.90;97.60;;;;;;5020398;28;20025;-67
2023/08/22 06:42:37;;;;;;;5.78;1.98;;;26.90;98.80;;;;;;5023793;28;20510;-66
2023/08/22 06:45:03;;;;;;;4.93;2.22;;;26.90;99.90;;;;;;5019486;28;20589;-66
2023/08/22 06:47:28;;;;;;;9.38;3.20;;;27.00;99.70;;;;;;5023605;28;20363;-66
2023/08/22 06:49:54;;;;;;;8.32;2.78;;;27.00;99.60;;;;;;4999192;28;20081;-67
2023/08/22 06:52:19;;;;;;;5.93;2.75;;;27.30;99.40;;;;;;5023093;28;20056;-65
2023/08/22 06:54:45;;;;;;;6.20;3.50;;;27.20;98.60;;;;;;5023272;28;20464;-65
2023/08/22 06:57:11;;;;;;;6.43;3.20;;;27.00;99.50;;;;;;5020467;28;20037;-66
2023/08/22 06:59:36;;;;;;;6.18;2.70;;;27.00;99.90;;;;;;5021148;28;20021;-66
2023/08/22 07:02:02;;;;;;;6.28;2.60;;;27.10;99.60;;;;;;5024136;28;20026;-66
2023/08/22 07:04:30;;;;;;;6.53;2.83;;;27.20;99.90;;;;;;5023813;28;20104;-66
2023/08/22 07:06:56;;;;;;;5.82;2.40;;;28.80;96.90;;;;;;5023537;28;20054;-66
2023/08/22 07:09:22;;;;;;;9.55;3.15;;;29.10;95.00;;;;;;5023393;28;20507;-66
2023/08/22 07:11:47;;;;;;;5.20;2.95;;;28.80;95.30;;;;;;5023914;28;20079;-67
2023/08/22 07:14:13;;;;;;;3.88;2.40;;;28.40;97.80;;;;;;5018520;28;20029;-66
2023/08/22 07:16:39;;;;;;;5.22;3.22;;;29.20;96.10;;;;;;5021369;28;20483;-66
2023/08/22 07:19:04;;;;;;;9.77;2.80;;;29.50;94.80;;;;;;5024016;28;20132;-66
2023/08/22 07:21:30;;;;;;;6.10;2.55;;;30.30;93.30;;;;;;5023613;28;20462;-65
2023/08/22 07:23:56;;;;;;;7.78;2.95;;;30.70;92.50;;;;;;5019512;28;20052;-66
2023/08/22 07:26:22;;;;;;;5.70;2.20;;;31.40;91.10;;;;;;5020053;28;20036;-62
2023/08/22 07:28:47;;;;;;;8.32;3.03;;;32.00;90.90;;;;;;5022008;28;20034;-66
2023/08/22 07:31:13;;;;;;;6.18;2.55;;;32.00;87.80;;;;;;5023479;28;20022;-67
2023/08/22 07:33:38;;;;;;;7.88;2.45;;;31.40;89.30;;;;;;5026918;28;20095;-67
2023/08/22 07:36:04;;;;;;;6.45;2.40;;;30.80;90.70;;;;;;5024266;28;20688;-65
2023/08/22 07:38:30;;;;;;;9.35;3.53;;;29.60;92.20;;;;;;5045260;22;20029;-67
2023/08/22 07:40:55;;;;;;;6.97;2.97;;;28.60;94.50;;;;;;5003013;28;20049;-65
2023/08/22 07:43:21;;;;;;;8.30;2.75;;;28.50;95.10;;;;;;5012092;28;20033;-67
2023/08/22 07:45:46;;;;;;;6.97;3.45;;;28.60;96.00;;;;;;5010642;28;20062;-67
2023/08/22 07:48:12;;;;;;;10.13;3.20;;;28.50;95.80;;;;;;5016280;28;20117;-65
2023/08/22 07:50:38;;;;;;;8.75;3.67;;;29.50;95.30;;;;;;4995134;28;20054;-66
2023/08/22 07:53:05;;;;;;;12.02;3.25;;;29.60;93.90;;;;;;5002431;28;20031;-66
2023/08/22 07:55:31;;;;;;;9.48;4.40;;;30.20;93.30;;;;;;5003478;28;20081;-65
2023/08/22 07:57:57;;;;;;;10.20;3.65;;;30.20;92.10;;;;;;5006284;28;20128;-66
2023/08/22 08:00:23;;;;;;;8.73;3.97;;;30.80;92.20;;;;;;5004392;28;20036;-63
2023/08/22 08:02:49;;;;;;;7.97;4.35;;;31.50;91.00;;;;;;5007125;28;20030;-66
2023/08/22 08:05:15;;;;;;;10.63;4.97;;;31.70;90.20;;;;;;5006565;28;20116;-65
2023/08/22 08:07:40;;;;;;;13.73;4.10;;;32.10;86.20;;;;;;5005034;28;20077;-66
2023/08/22 08:10:07;;;;;;;8.82;4.50;;;31.90;87.00;;;;;;5005210;28;20037;-66
2023/08/22 08:12:32;;;;;;;12.15;4.43;;;32.00;87.70;;;;;;5018909;28;20129;-66
2023/08/22 08:14:58;;;;;;;14.45;4.75;;;31.80;87.80;;;;;;5002514;28;20124;-66
2023/08/22 08:17:25;;;;;;;9.13;4.57;;;32.10;87.70;;;;;;5008230;28;20109;-68
2023/08/22 08:19:51;;;;;;;10.82;5.18;;;32.20;84.00;;;;;;5021407;28;20033;-66
2023/08/22 08:22:16;;;;;;;10.27;4.78;;;31.60;85.90;;;;;;5002597;28;20034;-66
2023/08/22 08:24:43;;;;;;;9.65;4.20;;;31.40;87.70;;;;;;5004095;28;20030;-66
2023/08/22 08:27:08;;;;;;;8.00;3.90;;;31.60;85.30;;;;;;5005677;28;20120;-66
2023/08/22 08:29:34;;;;;;;6.90;3.22;;;31.80;87.40;;;;;;5002530;28;20101;-66
2023/08/22 08:32:00;;;;;;;6.72;3.42;;;32.20;83.60;;;;;;5005907;28;20033;-66
2023/08/22 08:34:26;;;;;;;7.55;3.17;;;32.00;82.60;;;;;;5021906;28;20026;-67
2023/08/22 08:36:52;;;;;;;5.50;3.10;;;31.80;83.10;;;;;;5001528;28;20034;-66
2023/08/22 08:39:18;;;;;;;8.98;3.28;;;32.20;82.10;;;;;;5005247;28;20041;-66
2023/08/22 08:42:12;;;;;;;8.68;2.83;;;32.50;82.10;;;;;;5003086;28;20030;-66
2023/08/22 08:44:38;;;;;;;5.97;2.20;;;32.20;84.20;;;;;;5003532;28;20091;-65
2023/08/22 08:47:05;;;;;;;8.82;2.70;;;31.70;84.10;;;;;;4997066;28;20088;-65
2023/08/22 08:49:32;;;;;;;7.28;3.00;;;32.20;85.00;;;;;;4970199;28;20121;-65
2023/08/22 08:52:03;;;;;;;7.57;2.85;;;32.30;82.80;;;;;;4999454;28;20095;-65
2023/08/22 08:54:28;;;;;;;6.57;2.55;;;32.80;81.60;;;;;;4999130;28;20753;-66
2023/08/22 08:56:55;;;;;;;12.02;2.97;;;32.40;82.00;;;;;;5018827;28;20084;-67
2023/08/22 08:59:20;;;;;;;5.63;2.65;;;32.10;81.60;;;;;;5000001;28;20029;-66
2023/08/22 09:01:47;;;;;;;6.80;2.92;;;32.10;83.60;;;;;;5002540;28;20423;-66
2023/08/22 09:04:13;;;;;;;8.13;3.00;;;31.20;83.90;;;;;;5001985;28;20030;-65
2023/08/22 09:06:39;;;;;;;8.90;2.83;;;30.80;86.10;;;;;;5002124;28;20537;-66
2023/08/22 09:09:11;;;;;;;7.72;2.88;;;30.30;88.80;;;;;;4999642;28;20033;-66
2023/08/22 09:11:43;;;;;;;5.82;2.85;;;30.00;90.60;;;;;;5001928;28;20033;-65
2023/08/22 09:14:10;;;;;;;;;;;29.50;89.90;;;;;;5001262;28;20116;-66
2023/08/22 09:16:35;;;;;;;13.32;3.58;;;29.50;91.20;;;;;;4999924;28;20639;-65
2023/08/22 09:19:01;;;;;;;11.25;3.20;;;29.50;92.40;;;;;;5000843;28;20105;-65
2023/08/22 09:21:28;;;;;;;8.07;3.28;;;29.30;92.30;;;;;;4999181;28;20061;-67
2023/08/22 09:24:08;;;;;;;9.30;3.10;;;29.00;91.70;;;;;;5004122;28;20037;-68
2023/08/22 09:26:34;;;;;;;7.35;3.10;;;28.90;92.00;;;;;;5002297;28;20392;-67
2023/08/22 09:29:05;;;;;;;8.95;2.60;;;29.40;90.20;;;;;;4994773;28;20038;-67
2023/08/22 09:31:32;;;;;;;3.65;1.90;;;29.80;90.00;;;;;;5003471;28;20045;-67
2023/08/22 09:33:58;;;;;;;9.68;2.85;;;30.10;89.20;;;;;;5003971;28;20014;-67
2023/08/22 09:36:24;;;;;;;8.63;2.55;;;30.20;87.40;;;;;;4995345;28;20058;-67
2023/08/22 09:38:57;;;;;;;5.90;1.95;;;30.30;88.20;;;;;;5005960;28;20065;-65
2023/08/22 09:41:25;;;;;;;6.47;2.42;;;30.70;84.80;;;;;;5003770;28;20022;-66
2023/08/22 09:43:54;;;;;;;6.28;2.10;;;30.90;83.80;;;;;;5001556;28;20422;-65
2023/08/22 09:46:23;;;;;;;7.78;2.20;;;31.10;83.90;;;;;;5002530;28;20483;-66
2023/08/22 09:48:50;;;;;;;9.13;2.42;;;31.50;80.60;;;;;;4979365;28;20053;-66
2023/08/22 09:51:19;;;;;;;9.60;2.67;;;31.70;80.00;;;;;;4999539;28;20037;-66
2023/08/22 09:53:55;;;;;;;7.43;1.90;;;31.70;83.70;;;;;;5003115;28;20040;-66
2023/08/22 09:56:23;;;;;;;6.13;2.00;;;31.60;82.90;;;;;;5001831;28;20479;-66
2023/08/22 09:58:49;;;;;;;5.90;1.98;;;32.10;80.60;;;;;;4999307;28;20045;-65
2023/08/22 10:01:16;;;;;;;6.25;2.17;;;32.20;80.50;;;;;;5005203;28;20030;-66
2023/08/22 10:03:49;;;;;;;6.63;2.67;;;32.20;80.60;;;;;;5003387;28;20038;-67
2023/08/22 10:06:15;;;;;;;7.93;3.20;;;31.50;80.00;;;;;;4990848;28;20026;-66
2023/08/22 10:08:43;;;;;;;8.10;3.40;;;31.30;80.20;;;;;;5000628;28;20236;-65
2023/08/22 10:11:11;;;;;;;9.75;2.75;;;31.00;77.90;;;;;;5004172;28;20113;-69
2023/08/22 10:13:38;;;;;;;7.63;2.70;;;31.20;82.10;;;;;;5004333;28;20014;-67
2023/08/22 10:16:04;;;;;;;13.35;3.60;;;30.80;80.50;;;;;;4998393;28;20053;-67
2023/08/22 10:18:29;;;;;;;4.80;3.05;;;30.80;79.00;;;;;;5002342;28;20030;-67
2023/08/22 10:20:56;;;;;;;5.78;2.40;;;31.10;78.20;;;;;;5002696;28;20454;-68
2023/08/22 10:23:58;;;;;;;7.03;3.45;;;31.00;79.90;;;;;;5012575;28;20454;-67
2023/08/22 10:26:45;;;;;;;11.75;2.92;;;30.60;81.10;;;;;;4999702;28;20030;-65
2023/08/22 10:29:17;;;;;;;6.22;2.65;;;30.30;82.00;;;;;;4996909;28;20111;-66
2023/08/22 10:32:06;;;;;;;13.73;2.75;;;30.70;80.90;;;;;;4994954;28;20034;-67
2023/08/22 10:34:37;;;;;;;9.82;2.72;;;30.30;80.30;;;;;;4993356;28;20049;-67
2023/08/22 10:37:04;;;;;;;7.07;2.45;;;30.60;80.40;;;;;;4997577;28;20033;-67
2023/08/22 10:39:38;;;;;;;5.55;2.20;;;30.50;80.50;;;;;;4994647;28;20069;-67
2023/08/22 10:42:04;;;;;;;6.95;3.22;;;30.50;82.70;;;;;;4991252;28;21217;-68
2023/08/22 10:44:30;;;;;;;8.48;2.83;;;30.40;82.30;;;;;;4991703;28;20116;-68
2023/08/22 10:47:07;;;;;;;10.55;2.72;;;30.70;82.70;;;;;;5002307;28;20547;-68
2023/08/22 10:49:34;;;;;;;4.43;2.47;;;30.80;80.40;;;;;;4976130;28;20399;-67
2023/08/22 10:52:10;;;;;;;9.25;2.47;;;30.80;81.30;;;;;;4999513;28;20026;-67
2023/08/22 10:55:03;;;;;;;6.75;2.40;;;30.80;79.20;;;;;;4994039;28;20487;-68
2023/08/22 10:57:30;;;;;;;5.22;2.10;;;30.30;78.50;;;;;;4992787;28;20034;-67
2023/08/22 10:59:59;;;;;;;6.38;2.15;;;30.40;82.20;;;;;;4998860;28;20018;-67
2023/08/22 11:02:32;;;;;;;5.18;2.15;;;30.50;79.50;;;;;;4996129;28;20591;-67
2023/08/22 11:05:03;;;;;;;5.43;1.75;;;30.70;77.20;;;;;;5003668;28;20073;-67
2023/08/22 11:07:30;;;;;;;3.60;1.77;;;30.30;79.70;;;;;;5003325;28;20025;-67
2023/08/22 11:09:55;;;;;;;8.63;2.03;;;30.70;80.60;;;;;;5003810;28;20030;-67
2023/08/22 11:12:22;;;;;;;9.02;1.98;;;30.70;76.90;;;;;;4999760;28;20034;-68
2023/08/22 11:14:50;;;;;;;6.75;1.83;;;30.40;80.10;;;;;;4999990;28;20038;-67
2023/08/22 11:17:16;;;;;;;7.10;1.60;;;30.50;78.70;;;;;;5004500;28;20029;-68
2023/08/22 11:19:43;;;;;;;9.82;1.90;;;30.80;76.90;;;;;;5003510;28;20563;-67
2023/08/22 11:22:09;;;;;;;17.23;3.42;;;30.20;79.70;;;;;;5004689;28;20034;-67
2023/08/22 11:24:35;;;;;;;7.68;2.58;;;29.40;81.20;;;;;;5005137;28;20030;-70
2023/08/22 11:27:03;;;;;;;6.28;2.53;;;29.10;83.00;;;;;;5021678;28;21281;-67
2023/08/22 11:29:39;;;;;;;6.82;2.53;;;29.10;82.40;;;;;;4999949;28;20053;-66
2023/08/22 11:32:17;;;;;;;11.23;2.72;;;29.10;83.40;;;;;;5007282;28;20458;-66
2023/08/22 11:34:42;;;;;;;8.65;2.55;;;29.30;83.30;;;;;;5004427;28;20034;-65
2023/08/22 11:37:09;;;;;;;7.47;1.75;;;29.60;84.10;;;;;;4993751;28;20091;-66
2023/08/22 11:39:34;;;;;;;7.13;3.13;;;29.90;83.20;;;;;;5002592;28;20080;-66
2023/08/22 11:42:00;;;;;;;7.00;2.58;;;30.30;83.80;;;;;;5004907;28;20564;-67
2023/08/22 11:44:26;;;;;;;8.10;2.17;;;30.40;81.00;;;;;;4994223;28;20042;-66
2023/08/22 11:46:53;;;;;;;3.55;2.30;;;29.90;81.10;;;;;;5005485;28;20091;-66
2023/08/22 11:49:19;;;;;;;7.28;2.67;;;30.20;80.60;;;;;;4980912;28;20054;-67
2023/08/22 11:51:45;;;;;;;5.18;2.10;;;30.30;81.20;;;;;;5000323;28;20133;-68
2023/08/22 11:54:22;;;;;;;10.10;2.67;;;29.90;82.10;;;;;;4998398;28;20026;-68
2023/08/22 11:56:48;;;;;;;8.27;3.40;;;30.30;81.70;;;;;;5005348;28;20492;-67
2023/08/22 11:59:14;;;;;;;6.90;3.13;;;30.50;80.10;;;;;;5004312;28;20087;-67
2023/08/22 12:01:40;;;;;;;6.50;2.63;;;30.60;79.20;;;;;;4997372;28;20388;-67
2023/08/22 12:04:07;;;;;;;11.18;2.40;;;30.30;82.60;;;;;;5003876;28;20095;-67
2023/08/22 12:06:32;;;;;;;9.75;3.25;;;30.60;80.40;;;;;;5001314;28;20036;-67
2023/08/22 12:09:00;;;;;;;9.18;2.83;;;30.50;78.50;;;;;;5001846;28;20037;-67
2023/08/22 12:11:27;;;;;;;9.00;3.55;;;30.30;79.80;;;;;;4994825;28;20104;-67
2023/08/22 12:13:53;;;;;;;10.70;3.40;;;29.70;80.10;;;;;;4998593;28;20037;-67
2023/08/22 12:16:18;;;;;;;8.13;2.75;;;29.30;82.40;;;;;;5007140;28;20034;-67
2023/08/22 12:18:44;;;;;;;11.50;2.67;;;29.30;82.10;;;;;;5003219;28;20084;-67
2023/08/22 12:21:10;;;;;;;6.28;2.60;;;29.00;85.20;;;;;;5005373;28;20109;-67
2023/08/22 12:23:37;;;;;;;7.47;3.72;;;28.90;84.40;;;;;;4998884;28;20495;-67
2023/08/22 12:26:03;;;;;;;7.78;3.22;;;28.60;85.40;;;;;;5007789;28;20033;-66
2023/08/22 12:28:28;;;;;;;7.57;3.70;;;28.60;83.80;;;;;;5004522;28;20084;-67
2023/08/22 12:30:54;;;;;;;10.70;4.15;;;28.40;84.60;;;;;;5004053;28;20594;-67
2023/08/22 12:33:19;;;;;;;6.70;3.30;;;28.20;84.90;;;;;;5004345;28;20030;-66
2023/08/22 12:35:45;;;;;;;10.25;3.40;;;28.00;86.50;;;;;;5006580;28;20026;-67
2023/08/22 12:38:11;;;;;;;11.50;3.63;;;28.10;85.70;;;;;;5000519;28;20061;-67
2023/08/22 12:40:37;;;;;;;9.45;3.38;;;28.00;87.70;;;;;;5007038;28;20061;-67
2023/08/22 12:43:03;;;;;;;7.38;2.70;;;27.90;86.50;;;;;;5005830;28;20698;-67